Flight Track Log - Related Links

Times and Time Zones

All times are in EDT time to prevent confusion due to time zone crossing. See the N966QS flight status page for this flight to view local times or setup timezone preferences in your user account.

Time Position Orientation Groundspeed Altitude Reporting Facility
EDT Latitude Longitude Course Direction KTS MPH feet Rate Location/Type
Sat 06:03:22 PM 35.1972 -80.9381 166° South 177 204 1,800  Level Atlanta Center
Sat 06:04:17 PM 35.1444 -80.9222 166° South 238 274 5,200 3,983 Climbing Atlanta Center
Sat 06:05:18 PM 35.0969 -80.8503 129° Southeast 283 326 9,500 3,868 Climbing Atlanta Center
Sat 06:06:18 PM 35.1281 -80.7678 65° Northeast 280 322 13,000 2,061 Climbing Atlanta Center
Sat 06:07:29 PM 35.1733 -80.6719 60° Northeast 323 372 14,000 1,492 Climbing Atlanta Center
Sat 06:09:15 PM 35.2697 -80.4764 59° Northeast 349 402 17,400 1,976 Climbing Washington Center
Sat 06:10:16 PM 35.3219 -80.3703 59° Northeast 349 402 19,500 2,281 Climbing Washington Center
Sat 06:11:16 PM 35.3742 -80.2664 58° Northeast 349 402 22,000 2,231 Climbing Washington Center
Sat 06:12:17 PM 35.4264 -80.1547 60° Northeast 359 413 24,000 1,884 Climbing Washington Center
Sat 06:13:17 PM 35.4625 -80.0267 71° East 376 433 25,800 1,881 Climbing Washington Center
Sat 06:14:15 PM 35.4986 -79.8936 72° East 397 457 27,700 1,831 Climbing Washington Center
Sat 06:15:15 PM 35.5350 -79.7525 72° East 419 482 29,400 1,537 Climbing Washington Center
Sat 06:16:16 PM 35.5714 -79.6011 73° East 438 504 30,800 1,377 Climbing Washington Center
Sat 06:17:17 PM 35.6119 -79.4447 72° East 469 540 32,200 1,377 Climbing Washington Center
Sat 06:18:18 PM 35.6711 -79.2967 64° Northeast 474 545 33,600 915 Climbing Washington Center
Sat 06:19:15 PM 35.7806 -79.1944 37° Northeast 474 545 34,000 -359 Climbing Washington Center
Sat 06:20:15 PM 35.9000 -79.1025 32° Northeast 479 551 32,900 -1,289 Descending Washington Center
Sat 06:21:16 PM 36.0217 -79.0128 31° Northeast 490 564 31,400 -1,426 Descending Washington Center
Sat 06:22:17 PM 36.1433 -78.9178 32° Northeast 501 577 30,000 -1,388 Descending Washington Center
Sat 06:23:17 PM 36.2606 -78.8300 31° Northeast 506 582 28,600 -1,475 Descending Washington Center
Sat 06:24:15 PM 36.3797 -78.7369 32° Northeast 506 582 27,100 -807 Descending Washington Center
Sat 06:25:16 PM 36.4989 -78.6461 31° Northeast 506 582 27,000 -50 Descending Washington Center
Sat 06:26:16 PM 36.6161 -78.5522 33° Northeast 506 582 27,000  Level Washington Center
Sat 06:27:17 PM 36.7225 -78.4683 32° Northeast 506 582 27,000  Level Washington Center
Sat 06:28:17 PM 36.8394 -78.3767 32° Northeast 501 577 27,000 -102 Level Washington Center
Sat 06:29:15 PM 36.9733 -78.2697 33° Northeast 509 586 26,800 -252 Descending Washington Center
Sat 06:30:16 PM 37.0922 -78.1747 33° Northeast 509 586 26,500 -694 Descending Washington Center
Sat 06:31:16 PM 37.1961 -78.0922 32° Northeast 504 580 25,400 -1,160 Descending Washington Center
Sat 06:32:15 PM 37.3083 -78.0044 32° Northeast 486 559 24,200 -1,160 Descending Washington Center
Sat 06:33:15 PM 37.4186 -77.9139 33° Northeast 476 548 23,100 -1,091 Descending Washington Center
Sat 06:34:16 PM 37.5289 -77.8308 31° Northeast 470 541 22,000 -1,721 Descending Washington Center
Sat 06:35:17 PM 37.6425 -77.7633 25° Northeast 457 526 19,600 -2,017 Descending Washington Center
Sat 06:36:15 PM 37.7503 -77.6981 26° Northeast 433 498 18,000 -1,916 Descending Washington Center
Sat 06:37:16 PM 37.8556 -77.6353 25° Northeast 422 486 15,800 -1,950 Descending Washington Center
Sat 06:38:15 PM 37.9567 -77.5750 25° Northeast 412 474 14,100 -1,800 Descending Washington Center
Sat 06:39:16 PM 38.0639 -77.5197 22° Northeast 392 451 12,200 -1,623 Descending Washington Center
Sat 06:40:17 PM 38.1461 -77.4717 25° Northeast 355 409 10,800 -1,109 Descending Washington Center
Sat 06:41:15 PM 38.2175 -77.4286 25° Northeast 311 358 10,000 -661 Descending Washington Center
Sat 06:42:15 PM 38.2892 -77.3825 27° Northeast 290 334 9,500 -793 Descending Washington Center
Sat 06:43:16 PM 38.3606 -77.3578 15° North 271 312 8,400 -1,289 Descending Washington Center
Sat 06:44:16 PM 38.4375 -77.3622 357° North 265 305 6,900 -1,140 Descending Washington Center
Sat 06:45:17 PM 38.5125 -77.3642 359° North 265 305 6,100 -605 Descending Washington Center
Sat 06:46:15 PM 38.5897 -77.3686 357° North 271 312 5,700 -848 Descending Washington Center
Sat 06:46:56 PM 38.6333 -77.3667 North 269 310 4,700 -1,010 Descending Potomac TRACON
Sat 06:47:56 PM 38.7167 -77.3667 360° North 257 296 4,000 -350 Descending Potomac TRACON
Sat 06:48:56 PM 38.7833 -77.3500 11° North 271 312 4,000 -300 Level Potomac TRACON
Sat 06:49:56 PM 38.8667 -77.3500 360° North 268 308 3,400 -500 Descending Potomac TRACON
Sat 06:50:56 PM 38.9333 -77.3500 360° North 248 285 3,000 -347 Descending Potomac TRACON
Sat 06:51:57 PM 39.0000 -77.3500 360° North 246 283 2,700 -545 Descending Potomac TRACON
Sat 06:52:57 PM 39.0167 -77.4333 284° West 198 228 1,900 -1,000 Descending Potomac TRACON
Sat 06:53:57 PM 38.9833 -77.4667 218° Southwest 166 191 700 -1,200 Descending Potomac TRACON
Sat 06:55:00 PM 38.9474 -77.4599 195° South  Level Estimated
Sat 07:02:00 PM 38.9474 -77.4599 195° South  Level Estimated
Sat 07:03:00 PM 38.9474 -77.4599 195° South  Level Estimated
Sat 07:04:00 PM 38.9474 -77.4599 195° South  Level Estimated
Sat 07:05:00 PM 38.9474 -77.4599 195° South  Level Estimated

Login

Don't have an account? Register now (free) for customized features, flight alerts, and more!